createdAt,value
2022-10-25T00:01:32.765Z,4.20
2022-10-25T00:04:00.726Z,3.97
2022-10-25T00:06:28.694Z,3.27
2022-10-25T00:09:02.654Z,3.80
2022-10-25T00:11:32.080Z,3.63
2022-10-25T00:14:07.156Z,3.50
2022-10-25T00:16:39.210Z,3.50
2022-10-25T00:19:07.567Z,3.70
2022-10-25T00:21:35.357Z,3.87
2022-10-25T00:24:03.184Z,3.80
2022-10-25T00:26:36.258Z,3.80
2022-10-25T00:29:07.871Z,3.33
2022-10-25T00:31:41.955Z,3.40
2022-10-25T00:34:09.794Z,3.43
2022-10-25T00:36:37.682Z,3.33
2022-10-25T00:39:05.789Z,3.63
2022-10-25T00:41:35.953Z,3.70
2022-10-25T00:44:43.548Z,3.23
2022-10-25T00:47:19.323Z,3.40
2022-10-25T00:49:50.487Z,3.10
2022-10-25T00:52:18.338Z,3.30
2022-10-25T00:54:48.869Z,3.43
2022-10-25T00:57:21.144Z,3.20
2022-10-25T00:59:50.370Z,3.20
2022-10-25T01:02:24.073Z,2.87
2022-10-25T01:04:53.353Z,3.33
2022-10-25T01:07:21.298Z,3.30
2022-10-25T01:09:49.369Z,3.40
2022-10-25T01:12:17.159Z,3.47
2022-10-25T01:14:48.351Z,3.30
2022-10-25T01:17:24.792Z,3.30
2022-10-25T01:20:29.167Z,3.20
2022-10-25T01:23:20.377Z,3.17
2022-10-25T01:26:07.832Z,3.20
2022-10-25T01:28:46.292Z,3.20
2022-10-25T01:31:28.635Z,3.03
2022-10-25T01:34:02.352Z,4.40
2022-10-25T01:36:42.082Z,3.10
2022-10-25T01:39:13.979Z,3.20
2022-10-25T01:41:51.137Z,3.10
2022-10-25T01:44:31.681Z,3.10
2022-10-25T01:47:03.793Z,2.90
2022-10-25T01:49:38.546Z,3.03
2022-10-25T01:52:10.981Z,2.70
2022-10-25T01:54:38.964Z,3.67
2022-10-25T01:57:22.709Z,3.00
2022-10-25T02:00:07.158Z,2.90
2022-10-25T02:02:44.293Z,2.70
2022-10-25T02:05:19.136Z,2.80
2022-10-25T02:08:06.956Z,2.90
2022-10-25T02:10:41.177Z,2.57
2022-10-25T02:13:20.769Z,2.70
2022-10-25T02:15:59.621Z,2.70
2022-10-25T02:21:06.890Z,3.00
2022-10-25T02:23:36.758Z,2.80
2022-10-25T02:26:10.222Z,2.63
2022-10-25T02:28:42.345Z,2.77
2022-10-25T02:31:16.062Z,2.90
2022-10-25T02:33:46.926Z,2.90
2022-10-25T02:36:16.498Z,3.27
2022-10-25T02:38:45.474Z,3.43
2022-10-25T02:41:13.491Z,3.60
2022-10-25T02:43:43.652Z,3.50
2022-10-25T02:46:16.377Z,2.83
2022-10-25T02:48:50.114Z,2.73
2022-10-25T02:51:19.495Z,3.20
2022-10-25T02:53:48.308Z,3.00
2022-10-25T02:56:19.380Z,3.00
2022-10-25T02:58:49.759Z,2.80
2022-10-25T03:01:21.444Z,2.70
2022-10-25T03:03:53.877Z,2.70
2022-10-25T03:06:21.721Z,2.60
2022-10-25T03:08:49.749Z,2.70
2022-10-25T03:11:18.497Z,2.27
2022-10-25T03:13:46.353Z,2.80
2022-10-25T03:16:14.232Z,2.63
2022-10-25T03:18:46.492Z,2.50
2022-10-25T03:21:15.704Z,2.67
2022-10-25T03:23:43.499Z,2.60
2022-10-25T03:26:11.350Z,2.90
2022-10-25T03:28:39.193Z,2.70
2022-10-25T03:31:12.813Z,3.10
2022-10-25T03:33:40.788Z,3.00
2022-10-25T03:36:14.059Z,3.17
2022-10-25T03:38:46.103Z,2.97
2022-10-25T03:41:13.947Z,2.60
2022-10-25T03:43:41.745Z,3.10
2022-10-25T03:46:09.514Z,3.20
2022-10-25T03:48:37.404Z,3.23
2022-10-25T03:51:08.291Z,2.97
2022-10-25T03:53:41.303Z,3.13
2022-10-25T03:56:13.685Z,2.97
2022-10-25T03:58:43.527Z,2.90
2022-10-25T04:01:11.651Z,3.30
2022-10-25T04:03:39.554Z,2.90
2022-10-25T04:06:07.903Z,2.33
2022-10-25T04:08:38.487Z,2.97
2022-10-25T04:11:09.408Z,2.57
2022-10-25T04:13:38.612Z,2.70
2022-10-25T04:16:07.938Z,2.70
2022-10-25T04:18:35.920Z,2.60
2022-10-25T04:21:03.744Z,2.33
2022-10-25T04:23:32.149Z,2.67
2022-10-25T04:25:59.969Z,3.40
2022-10-25T04:28:27.911Z,2.73
2022-10-25T04:30:57.042Z,2.63
2022-10-25T04:33:25.010Z,2.50
2022-10-25T04:35:57.896Z,3.20
2022-10-25T04:38:25.750Z,2.77
2022-10-25T04:41:00.126Z,2.53
2022-10-25T04:43:31.095Z,3.00
2022-10-25T04:46:07.105Z,2.50
2022-10-25T04:48:38.833Z,2.90
2022-10-25T04:51:09.312Z,3.00
2022-10-25T04:53:37.197Z,3.10
2022-10-25T04:56:06.936Z,2.93
2022-10-25T04:58:35.415Z,2.97
2022-10-25T05:01:11.522Z,3.10
2022-10-25T05:03:39.845Z,2.43
2022-10-25T05:06:12.766Z,2.57
2022-10-25T05:08:41.869Z,2.73
2022-10-25T05:11:10.710Z,2.27
2022-10-25T05:13:40.640Z,2.57
2022-10-25T05:16:17.854Z,2.30
2022-10-25T05:18:46.643Z,2.03
2022-10-25T05:21:15.968Z,2.63
2022-10-25T05:23:46.773Z,3.00
2022-10-25T05:26:17.597Z,2.57
2022-10-25T05:28:47.085Z,2.60
2022-10-25T05:31:18.458Z,2.70
2022-10-25T05:33:47.260Z,3.57
2022-10-25T05:36:18.095Z,2.80
2022-10-25T05:38:50.948Z,2.80
2022-10-25T05:41:19.605Z,3.90
2022-10-25T05:43:48.025Z,2.73
2022-10-25T05:46:19.400Z,2.83
2022-10-25T05:48:49.200Z,2.57
2022-10-25T05:51:33.026Z,2.40
2022-10-25T05:54:12.246Z,2.70
2022-10-25T05:56:40.917Z,2.80
2022-10-25T05:59:14.371Z,2.70
2022-10-25T06:01:45.443Z,2.50
2022-10-25T06:04:16.641Z,2.60
2022-10-25T06:06:48.377Z,2.47
2022-10-25T06:09:16.605Z,2.43
2022-10-25T06:11:44.444Z,2.60
2022-10-25T06:14:12.683Z,2.50
2022-10-25T06:16:40.721Z,2.30
2022-10-25T06:19:10.482Z,2.57
2022-10-25T06:21:38.868Z,2.17
2022-10-25T06:24:07.284Z,2.60
2022-10-25T06:26:35.089Z,2.50
2022-10-25T06:29:06.533Z,2.30
2022-10-25T06:31:34.765Z,2.40
2022-10-25T06:34:03.379Z,2.60
2022-10-25T06:36:32.964Z,2.40
2022-10-25T06:39:05.545Z,2.50
2022-10-25T06:41:37.035Z,2.50
2022-10-25T06:44:08.362Z,2.70
2022-10-25T06:47:04.397Z,2.30
2022-10-25T06:49:26.334Z,2.73
2022-10-25T06:51:55.539Z,3.07
2022-10-25T06:54:25.540Z,2.90
2022-10-25T06:56:53.460Z,2.50
2022-10-25T06:59:21.346Z,2.57
2022-10-25T07:01:52.736Z,2.50
2022-10-25T07:04:20.739Z,2.70
2022-10-25T07:06:50.174Z,2.70
2022-10-25T07:09:22.469Z,2.17
2022-10-25T07:11:50.294Z,2.80
2022-10-25T07:14:20.994Z,2.60
2022-10-25T07:16:48.802Z,2.60
2022-10-25T07:19:16.672Z,2.60
2022-10-25T07:21:45.165Z,2.27
2022-10-25T07:24:13.346Z,2.70
2022-10-25T07:26:42.570Z,2.50
2022-10-25T07:29:11.311Z,2.50
2022-10-25T07:31:44.353Z,2.70
2022-10-25T07:34:17.019Z,2.33
2022-10-25T07:36:45.415Z,3.20
2022-10-25T07:39:15.518Z,2.40
2022-10-25T07:41:44.676Z,2.67
2022-10-25T07:44:16.740Z,2.50
2022-10-25T07:46:46.207Z,2.60
2022-10-25T07:49:14.217Z,2.90
2022-10-25T07:51:42.148Z,2.87
2022-10-25T07:54:09.997Z,2.70
2022-10-25T07:56:37.889Z,2.50
2022-10-25T07:59:10.191Z,2.93
2022-10-25T08:01:38.089Z,2.60
2022-10-25T08:04:06.258Z,2.83
2022-10-25T08:06:37.196Z,2.70
2022-10-25T08:09:14.360Z,2.93
2022-10-25T08:11:48.313Z,3.03
2022-10-25T08:14:17.662Z,3.10
2022-10-25T08:16:45.558Z,2.90
2022-10-25T08:19:13.524Z,3.10
2022-10-25T08:21:41.369Z,2.97
2022-10-25T08:24:12.165Z,3.10
2022-10-25T08:26:40.071Z,3.10
2022-10-25T08:29:07.876Z,2.90
2022-10-25T08:31:40.264Z,3.10
2022-10-25T08:34:08.390Z,2.60
2022-10-25T08:36:36.279Z,2.73
2022-10-25T08:39:06.899Z,3.20
2022-10-25T08:41:45.000Z,3.20
2022-10-25T08:44:47.036Z,3.37
2022-10-25T08:47:21.179Z,3.30
2022-10-25T08:49:56.151Z,3.03
2022-10-25T08:52:31.376Z,3.10
2022-10-25T08:55:04.694Z,3.23
2022-10-25T08:57:37.944Z,3.40
2022-10-25T09:00:11.634Z,3.20
2022-10-25T09:02:47.120Z,3.20
2022-10-25T09:05:25.840Z,3.30
2022-10-25T09:08:33.419Z,3.53
2022-10-25T09:11:10.303Z,3.20
2022-10-25T09:13:51.026Z,3.17
2022-10-25T09:16:20.863Z,3.23
2022-10-25T09:18:52.321Z,3.07
2022-10-25T09:21:23.549Z,3.20
2022-10-25T09:23:59.826Z,3.03
2022-10-25T09:26:40.626Z,3.00
2022-10-25T09:29:19.113Z,3.00
2022-10-25T09:31:52.331Z,2.73
2022-10-25T09:34:24.210Z,2.87
2022-10-25T09:36:56.996Z,2.80
2022-10-25T09:39:35.319Z,2.60
2022-10-25T09:42:08.612Z,2.50
2022-10-25T09:44:41.361Z,2.43
2022-10-25T09:47:19.686Z,2.73
2022-10-25T09:49:56.116Z,2.87
2022-10-25T09:52:29.728Z,2.60
2022-10-25T09:55:08.026Z,2.80
2022-10-25T09:57:41.266Z,3.00
2022-10-25T10:00:14.201Z,2.90
2022-10-25T10:02:42.467Z,2.70
2022-10-25T10:05:16.704Z,2.57
2022-10-25T10:07:46.060Z,2.63
2022-10-25T10:10:17.479Z,2.90
2022-10-25T10:12:51.703Z,2.97
2022-10-25T10:15:24.847Z,3.20
2022-10-25T10:18:23.521Z,3.00
2022-10-25T10:21:14.702Z,2.93
2022-10-25T10:23:53.116Z,3.00
2022-10-25T10:26:25.156Z,3.10
2022-10-25T10:29:08.851Z,3.00
2022-10-25T10:31:39.191Z,2.93
2022-10-25T10:34:22.975Z,3.30
2022-10-25T10:37:08.362Z,3.03
2022-10-25T10:39:36.233Z,2.97
2022-10-25T10:42:16.952Z,3.00
2022-10-25T10:45:02.522Z,2.70
2022-10-25T10:47:34.720Z,3.07
2022-10-25T10:50:03.371Z,2.77
2022-10-25T10:52:41.060Z,2.90
2022-10-25T10:55:18.979Z,2.80
2022-10-25T10:57:47.076Z,2.90
2022-10-25T11:00:23.422Z,3.00
2022-10-25T11:02:51.915Z,2.87
2022-10-25T11:05:26.033Z,2.90
2022-10-25T11:07:58.063Z,3.00
2022-10-25T11:10:31.868Z,2.63
2022-10-25T11:13:14.692Z,2.73
2022-10-25T11:16:11.638Z,2.37
2022-10-25T11:18:50.087Z,2.23
2022-10-25T11:21:32.171Z,2.37
2022-10-25T11:24:14.861Z,2.10
2022-10-25T11:26:54.730Z,1.90
2022-10-25T11:29:52.407Z,2.23
2022-10-25T11:32:44.569Z,2.37
2022-10-25T11:35:31.719Z,2.40
2022-10-25T11:38:04.047Z,2.50
2022-10-25T11:40:40.779Z,2.70
2022-10-25T11:43:33.306Z,2.30
2022-10-25T11:46:07.129Z,1.80
2022-10-25T11:48:57.069Z,1.80
2022-10-25T11:51:33.069Z,1.30
2022-10-25T11:54:10.754Z,1.30
2022-10-25T11:56:50.156Z,1.43
2022-10-25T11:59:25.260Z,1.50
2022-10-25T12:02:08.943Z,1.50
2022-10-25T12:04:53.584Z,1.60
2022-10-25T12:07:26.142Z,1.63
2022-10-25T12:10:03.763Z,1.60
2022-10-25T12:12:42.051Z,1.63
2022-10-25T12:15:17.397Z,1.80
2022-10-25T12:17:45.328Z,1.90
2022-10-25T12:20:22.795Z,2.00
2022-10-25T12:22:53.669Z,2.00
2022-10-25T12:25:26.000Z,2.00
2022-10-25T12:28:04.672Z,1.90
2022-10-25T12:30:35.156Z,1.40
2022-10-25T12:33:12.219Z,1.20
2022-10-25T12:35:47.986Z,1.40
2022-10-25T12:38:21.836Z,1.40
2022-10-25T12:40:52.255Z,1.50
2022-10-25T12:43:28.450Z,1.50
2022-10-25T12:46:10.295Z,1.90
2022-10-25T12:49:04.317Z,1.40
2022-10-25T12:51:56.472Z,1.27
2022-10-25T12:54:56.168Z,1.30
2022-10-25T12:57:32.068Z,1.50
2022-10-25T13:00:13.269Z,1.40
2022-10-25T13:03:19.268Z,1.50
2022-10-25T13:06:25.869Z,1.30
2022-10-25T13:08:54.710Z,1.00
2022-10-25T13:11:34.066Z,1.20
2022-10-25T13:14:05.901Z,1.50
2022-10-25T13:16:36.619Z,1.30
2022-10-25T13:19:49.440Z,0.97
2022-10-25T13:22:34.183Z,1.10
2022-10-25T13:25:07.296Z,0.90
2022-10-25T13:27:36.288Z,1.10
2022-10-25T13:30:34.494Z,1.20
2022-10-25T13:33:33.437Z,1.20
2022-10-25T13:36:04.096Z,1.20
2022-10-25T13:38:39.330Z,1.20
2022-10-25T13:41:19.675Z,1.33
2022-10-25T13:43:58.369Z,1.30
2022-10-25T13:46:30.822Z,1.30
2022-10-25T13:49:03.913Z,1.20
2022-10-25T13:51:35.924Z,1.50
2022-10-25T13:54:08.380Z,1.60
2022-10-25T13:56:50.925Z,1.77
2022-10-25T13:59:59.693Z,1.70
2022-10-25T14:02:27.758Z,1.70
2022-10-25T14:04:57.142Z,1.87
2022-10-25T14:07:48.704Z,1.90
2022-10-25T14:10:38.235Z,1.67
2022-10-25T14:13:20.067Z,1.47
2022-10-25T14:15:57.560Z,2.00
2022-10-25T14:18:27.133Z,1.80
2022-10-25T14:21:05.296Z,1.60
2022-10-25T14:23:44.117Z,1.53
2022-10-25T14:26:16.213Z,1.70
2022-10-25T14:28:44.132Z,1.87
2022-10-25T14:31:20.844Z,2.00
2022-10-25T14:33:53.333Z,2.10
2022-10-25T14:36:33.426Z,2.03
2022-10-25T14:39:04.947Z,2.73
2022-10-25T14:41:35.569Z,2.40
2022-10-25T14:44:04.333Z,2.37
2022-10-25T14:46:35.543Z,2.20
2022-10-25T14:49:06.045Z,1.97
2022-10-25T14:51:38.141Z,2.00
2022-10-25T15:09:49.003Z,2.97
2022-10-25T15:12:24.790Z,2.90
2022-10-25T15:14:54.363Z,2.80
2022-10-25T15:17:33.930Z,2.80
2022-10-25T15:20:07.836Z,2.80
2022-10-25T15:22:44.805Z,2.70
2022-10-25T15:25:29.914Z,2.63
2022-10-25T15:27:59.046Z,2.77
2022-10-25T15:30:38.776Z,3.20
2022-10-25T15:33:11.587Z,3.30
2022-10-25T15:35:48.853Z,3.10
2022-10-25T15:38:18.830Z,2.70
2022-10-25T15:40:49.846Z,2.93
2022-10-25T15:43:17.823Z,2.70
2022-10-25T15:45:48.489Z,3.10
2022-10-25T15:48:27.992Z,3.00
2022-10-25T15:50:57.188Z,3.13
2022-10-25T15:53:26.406Z,2.60
2022-10-25T15:55:55.740Z,3.10
2022-10-25T15:58:23.644Z,2.80
2022-10-25T16:00:52.262Z,2.90
2022-10-25T16:03:22.581Z,2.90
2022-10-25T16:05:51.573Z,2.83
2022-10-25T16:08:19.839Z,2.97
2022-10-25T16:10:47.924Z,3.03
2022-10-25T16:13:27.050Z,2.50
2022-10-25T16:15:55.431Z,2.70
2022-10-25T16:20:53.051Z,3.07
2022-10-25T16:23:23.884Z,2.70
2022-10-25T16:25:53.292Z,2.50
2022-10-25T16:30:53.891Z,2.43
2022-10-25T16:33:21.780Z,2.10
2022-10-25T16:35:49.732Z,2.17
2022-10-25T16:38:17.698Z,2.43
2022-10-25T16:40:45.642Z,2.40
2022-10-25T16:43:15.866Z,2.60
2022-10-25T16:45:47.440Z,2.57
2022-10-25T16:48:15.393Z,2.37
2022-10-25T16:50:43.564Z,2.33
2022-10-25T16:53:14.953Z,2.40
2022-10-25T16:55:42.937Z,2.70
2022-10-25T16:58:11.587Z,2.00
2022-10-25T17:00:39.694Z,2.80
2022-10-25T17:03:10.547Z,2.60
2022-10-25T17:05:39.872Z,2.60
2022-10-25T17:08:09.890Z,2.50
2022-10-25T17:10:42.468Z,2.30
2022-10-25T17:13:17.172Z,2.70
2022-10-25T17:15:45.105Z,2.67
2022-10-25T17:18:18.689Z,2.70
2022-10-25T17:20:46.635Z,2.30
2022-10-25T17:23:14.759Z,2.43
2022-10-25T17:25:43.515Z,2.40
2022-10-25T17:28:12.775Z,2.83
2022-10-25T17:30:43.319Z,2.90
2022-10-25T17:33:15.547Z,2.77
2022-10-25T17:35:44.973Z,2.63
2022-10-25T17:38:12.922Z,2.83
2022-10-25T17:40:41.543Z,2.20
2022-10-25T17:43:11.970Z,2.77
2022-10-25T17:45:42.442Z,2.80
2022-10-25T17:48:10.487Z,2.90
2022-10-25T17:50:43.304Z,2.90
2022-10-25T17:53:14.292Z,3.17
2022-10-25T17:55:42.218Z,2.90
2022-10-25T17:58:10.245Z,3.10
2022-10-25T18:00:38.174Z,3.40
2022-10-25T18:03:08.042Z,3.23
2022-10-25T18:05:39.237Z,3.50
2022-10-25T18:08:09.927Z,3.03
2022-10-25T18:10:39.283Z,3.20
2022-10-25T18:13:07.285Z,3.00
2022-10-25T18:15:38.513Z,3.00
2022-10-25T18:18:06.493Z,3.40
2022-10-25T18:20:34.461Z,3.50
2022-10-25T18:23:02.425Z,3.43
2022-10-25T18:25:30.359Z,3.10
2022-10-25T18:27:59.733Z,3.10
2022-10-25T18:30:30.740Z,3.10
2022-10-25T18:32:58.691Z,3.10
2022-10-25T18:35:31.142Z,3.00
2022-10-25T18:37:59.074Z,3.30
2022-10-25T18:40:27.084Z,3.30
2022-10-25T18:42:56.081Z,3.33
2022-10-25T18:47:55.733Z,3.30
2022-10-25T18:50:24.147Z,2.80
2022-10-25T18:52:54.449Z,3.10
2022-10-25T18:55:26.746Z,3.27
2022-10-25T18:57:55.127Z,2.67
2022-10-25T19:00:26.352Z,3.10
2022-10-25T19:02:56.523Z,3.10
2022-10-25T19:05:27.527Z,3.20
2022-10-25T19:07:55.821Z,3.00
2022-10-25T19:10:26.603Z,2.80
2022-10-25T19:12:55.786Z,2.93
2022-10-25T19:15:27.582Z,2.80
2022-10-25T19:17:56.908Z,3.10
2022-10-25T19:20:24.832Z,2.73
2022-10-25T19:22:53.174Z,3.30
2022-10-25T19:25:23.864Z,3.30
2022-10-25T19:27:54.204Z,3.20
2022-10-25T19:30:22.444Z,2.70
2022-10-25T19:32:50.455Z,3.23
2022-10-25T19:35:20.930Z,2.70
2022-10-25T19:37:49.125Z,3.40
2022-10-25T19:40:17.485Z,2.87
2022-10-25T19:42:45.425Z,3.50
2022-10-25T19:45:13.425Z,2.80
2022-10-25T19:47:47.098Z,3.00
2022-10-25T19:50:15.608Z,2.87
2022-10-25T19:52:47.263Z,2.80
2022-10-25T19:55:15.257Z,3.00
2022-10-25T19:57:43.221Z,2.93
2022-10-25T20:00:13.537Z,3.30
2022-10-25T20:02:41.807Z,2.70
2022-10-25T20:05:14.294Z,3.17
2022-10-25T20:07:45.289Z,2.63
2022-10-25T20:10:17.599Z,2.90
2022-10-25T20:12:45.554Z,3.00
2022-10-25T20:15:16.701Z,2.50
2022-10-25T20:17:45.188Z,2.87
2022-10-25T20:20:19.056Z,2.80
2022-10-25T20:22:47.099Z,2.77
2022-10-25T20:25:16.709Z,2.50
2022-10-25T20:27:44.655Z,2.73
2022-10-25T20:30:12.787Z,2.80
2022-10-25T20:32:42.010Z,2.57
2022-10-25T20:35:10.063Z,2.40
2022-10-25T20:37:37.966Z,2.63
2022-10-25T20:40:07.867Z,2.67
2022-10-25T20:42:37.250Z,2.60
2022-10-25T20:45:05.699Z,2.50
2022-10-25T20:47:33.653Z,2.50
2022-10-25T20:50:01.613Z,2.50
2022-10-25T20:52:29.697Z,2.40
2022-10-25T20:54:57.760Z,2.47
2022-10-25T20:57:25.733Z,2.60
2022-10-25T20:59:55.073Z,2.83
2022-10-25T21:02:23.143Z,2.47
2022-10-25T21:04:53.683Z,2.93
2022-10-25T21:07:22.168Z,2.90
2022-10-25T21:09:50.252Z,2.77
2022-10-25T21:12:18.519Z,3.53
2022-10-25T21:14:46.467Z,2.83
2022-10-25T21:17:16.277Z,2.97
2022-10-25T21:19:45.445Z,3.20
2022-10-25T21:22:13.433Z,3.20
2022-10-25T21:24:41.476Z,3.20
2022-10-25T21:27:11.037Z,3.07
2022-10-25T21:29:38.903Z,2.97
2022-10-25T21:32:06.989Z,3.20
2022-10-25T21:34:36.400Z,3.10
2022-10-25T21:37:04.318Z,3.23
2022-10-25T21:39:32.237Z,3.00
2022-10-25T21:42:00.132Z,3.30
2022-10-25T21:44:28.069Z,3.03
2022-10-25T21:46:56.701Z,3.30
2022-10-25T21:49:24.805Z,3.40
2022-10-25T21:51:56.940Z,3.70
2022-10-25T21:54:26.049Z,3.50
2022-10-25T21:56:54.213Z,3.10
2022-10-25T21:59:22.943Z,3.50
2022-10-25T22:01:52.436Z,3.60
2022-10-25T22:04:22.284Z,3.10
2022-10-25T22:06:50.213Z,3.43
2022-10-25T22:09:20.825Z,3.70
2022-10-25T22:11:51.698Z,3.43
2022-10-25T22:14:19.735Z,3.33
2022-10-25T22:16:47.826Z,2.90
2022-10-25T22:19:18.747Z,3.73
2022-10-25T22:21:47.631Z,3.47
2022-10-25T22:24:16.598Z,3.20
2022-10-25T22:26:47.166Z,3.40
2022-10-25T22:29:15.533Z,3.20
2022-10-25T22:31:43.523Z,3.67
2022-10-25T22:34:11.618Z,3.90
2022-10-25T22:36:43.905Z,3.50
2022-10-25T22:39:12.173Z,3.70
2022-10-25T22:41:42.698Z,3.70
2022-10-25T22:44:12.423Z,3.70
2022-10-25T22:46:42.597Z,3.70
2022-10-25T22:49:10.870Z,4.43
2022-10-25T22:51:39.849Z,3.43
2022-10-25T22:54:08.247Z,3.90
2022-10-25T22:56:36.243Z,4.70
2022-10-25T22:59:08.976Z,3.70
2022-10-25T23:01:39.009Z,3.80
2022-10-25T23:04:09.018Z,3.67
2022-10-25T23:06:39.082Z,3.90
2022-10-25T23:09:09.169Z,3.70
2022-10-25T23:11:38.468Z,3.80
2022-10-25T23:14:13.426Z,4.20
2022-10-25T23:16:51.303Z,4.40
2022-10-25T23:19:19.232Z,4.50
2022-10-25T23:21:47.149Z,3.80
2022-10-25T23:24:15.097Z,3.53
2022-10-25T23:26:43.076Z,4.47
2022-10-25T23:29:13.016Z,4.70
2022-10-25T23:31:44.151Z,4.37
2022-10-25T23:34:13.637Z,4.40
2022-10-25T23:36:41.595Z,4.10
2022-10-25T23:39:09.694Z,4.77
2022-10-25T23:41:37.898Z,4.23
2022-10-25T23:59:30.084Z,4.30
